createdAt,value
2022-12-13T00:00:40.760Z,100.00
2022-12-13T00:01:45.271Z,100.00
2022-12-13T00:02:47.421Z,100.00
2022-12-13T00:03:50.720Z,100.00
2022-12-13T00:04:53.744Z,100.00
2022-12-13T00:05:55.852Z,100.00
2022-12-13T00:06:58.884Z,100.00
2022-12-13T00:08:01.877Z,100.00
2022-12-13T00:09:07.253Z,100.00
2022-12-13T00:10:09.683Z,100.00
2022-12-13T00:11:14.787Z,100.00
2022-12-13T00:12:17.930Z,100.00
2022-12-13T00:13:19.929Z,100.00
2022-12-13T00:14:23.095Z,100.00
2022-12-13T00:15:25.096Z,100.00
2022-12-13T00:16:28.650Z,100.00
2022-12-13T00:17:32.095Z,100.00
2022-12-13T00:18:35.309Z,100.00
2022-12-13T00:19:38.647Z,100.00
2022-12-13T00:20:40.710Z,100.00
2022-12-13T00:21:43.863Z,100.00
2022-12-13T00:22:45.900Z,100.00
2022-12-13T00:23:49.431Z,100.00
2022-12-13T00:24:55.088Z,100.00
2022-12-13T00:26:02.661Z,100.00
2022-12-13T00:27:06.019Z,100.00
2022-12-13T00:28:08.591Z,100.00
2022-12-13T00:29:12.255Z,100.00
2022-12-13T00:30:14.580Z,100.00
2022-12-13T00:32:41.603Z,100.00
2022-12-13T00:33:43.774Z,100.00
2022-12-13T00:34:46.948Z,100.00
2022-12-13T00:35:49.114Z,100.00
2022-12-13T00:36:52.299Z,100.00
2022-12-13T00:37:54.444Z,100.00
2022-12-13T00:39:03.433Z,100.00
2022-12-13T00:40:08.362Z,100.00
2022-12-13T00:41:13.896Z,100.00
2022-12-13T00:42:17.080Z,100.00
2022-12-13T00:43:19.286Z,100.00
2022-12-13T00:44:22.500Z,100.00
2022-12-13T00:45:25.646Z,100.00
2022-12-13T00:46:28.680Z,100.00
2022-12-13T00:47:31.999Z,100.00
2022-12-13T00:48:34.130Z,100.00
2022-12-13T00:49:37.321Z,100.00
2022-12-13T00:50:39.518Z,100.00
2022-12-13T00:51:42.838Z,100.00
2022-12-13T00:52:46.200Z,100.00
2022-12-13T00:53:48.510Z,100.00
2022-12-13T00:54:51.659Z,100.00
2022-12-13T00:55:55.183Z,100.00
2022-12-13T00:56:58.398Z,100.00
2022-12-13T00:58:00.628Z,100.00
2022-12-13T00:59:04.658Z,100.00
2022-12-13T01:00:09.322Z,100.00
2022-12-13T01:01:13.644Z,100.00
2022-12-13T01:02:16.851Z,100.00
2022-12-13T01:03:25.446Z,100.00
2022-12-13T01:04:28.685Z,100.00
2022-12-13T01:06:04.152Z,100.00
2022-12-13T01:06:55.252Z,100.00
2022-12-13T01:07:57.939Z,100.00
2022-12-13T01:09:01.843Z,100.00
2022-12-13T01:10:07.255Z,100.00
2022-12-13T01:11:11.672Z,100.00
2022-12-13T01:12:15.334Z,100.00
2022-12-13T01:13:17.589Z,100.00
2022-12-13T01:14:20.947Z,100.00
2022-12-13T01:15:23.237Z,100.00
2022-12-13T01:16:26.592Z,100.00
2022-12-13T01:17:30.732Z,100.00
2022-12-13T01:18:34.047Z,100.00
2022-12-13T01:19:37.294Z,100.00
2022-12-13T01:20:39.527Z,100.00
2022-12-13T01:21:42.812Z,100.00
2022-12-13T01:22:46.067Z,100.00
2022-12-13T01:23:48.279Z,100.00
2022-12-13T01:24:51.426Z,100.00
2022-12-13T01:25:53.722Z,100.00
2022-12-13T01:26:58.333Z,100.00
2022-12-13T01:28:00.537Z,100.00
2022-12-13T01:29:05.353Z,100.00
2022-12-13T01:30:08.187Z,100.00
2022-12-13T01:31:13.100Z,100.00
2022-12-13T01:32:16.297Z,100.00
2022-12-13T01:33:18.878Z,100.00
2022-12-13T01:34:26.304Z,100.00
2022-12-13T01:35:29.004Z,100.00
2022-12-13T01:36:32.157Z,100.00
2022-12-13T01:37:40.474Z,100.00
2022-12-13T01:38:43.884Z,100.00
2022-12-13T01:39:47.056Z,100.00
2022-12-13T01:40:57.767Z,100.00
2022-12-13T01:42:05.435Z,100.00
2022-12-13T01:43:14.895Z,100.00
2022-12-13T01:44:55.048Z,100.00
2022-12-13T01:45:58.273Z,100.00
2022-12-13T01:47:01.142Z,100.00
2022-12-13T01:48:07.782Z,100.00
2022-12-13T01:49:20.066Z,100.00
2022-12-13T01:50:27.305Z,100.00
2022-12-13T01:51:35.300Z,100.00
2022-12-13T01:52:38.566Z,100.00
2022-12-13T01:53:44.862Z,100.00
2022-12-13T01:54:51.083Z,100.00
2022-12-13T01:55:58.262Z,100.00
2022-12-13T01:57:03.476Z,100.00
2022-12-13T01:58:08.071Z,100.00
2022-12-13T01:59:11.772Z,100.00
2022-12-13T02:00:16.714Z,100.00
2022-12-13T02:01:19.221Z,100.00
2022-12-13T02:02:23.242Z,100.00
2022-12-13T02:03:26.537Z,100.00
2022-12-13T02:04:32.106Z,100.00
2022-12-13T02:05:38.314Z,100.00
2022-12-13T02:06:44.640Z,100.00
2022-12-13T02:07:47.880Z,100.00
2022-12-13T02:08:51.086Z,100.00
2022-12-13T02:09:56.361Z,100.00
2022-12-13T02:11:00.579Z,100.00
2022-12-13T02:12:04.958Z,100.00
2022-12-13T02:13:09.546Z,100.00
2022-12-13T02:14:12.718Z,100.00
2022-12-13T02:15:17.699Z,100.00
2022-12-13T02:16:38.887Z,100.00
2022-12-13T02:17:58.221Z,100.00
2022-12-13T02:19:38.462Z,100.00
2022-12-13T02:21:18.172Z,100.00
2022-12-13T02:22:38.863Z,100.00
2022-12-13T02:23:56.725Z,100.00
2022-12-13T02:25:20.741Z,100.00
2022-12-13T02:26:57.917Z,100.00
2022-12-13T02:28:31.845Z,100.00
2022-12-13T02:30:04.029Z,100.00
2022-12-13T02:31:13.744Z,100.00
2022-12-13T02:32:22.150Z,100.00
2022-12-13T02:33:39.241Z,100.00
2022-12-13T02:34:46.026Z,100.00
2022-12-13T02:35:54.306Z,100.00
2022-12-13T02:37:03.197Z,100.00
2022-12-13T02:38:13.024Z,100.00
2022-12-13T02:39:30.636Z,100.00
2022-12-13T02:40:39.614Z,100.00
2022-12-13T02:41:49.945Z,100.00
2022-12-13T02:43:00.307Z,100.00
2022-12-13T02:44:21.654Z,100.00
2022-12-13T02:45:30.440Z,100.00
2022-12-13T02:46:40.838Z,100.00
2022-12-13T02:47:44.356Z,100.00
2022-12-13T02:48:51.195Z,100.00
2022-12-13T02:49:58.200Z,100.00
2022-12-13T02:51:04.319Z,100.00
2022-12-13T02:52:08.316Z,100.00
2022-12-13T02:53:13.963Z,100.00
2022-12-13T02:54:16.111Z,100.00
2022-12-13T02:55:21.145Z,100.00
2022-12-13T02:56:27.129Z,100.00
2022-12-13T02:57:31.551Z,100.00
2022-12-13T02:58:37.678Z,100.00
2022-12-13T02:59:40.652Z,100.00
2022-12-13T03:00:55.512Z,100.00
2022-12-13T03:02:12.522Z,100.00
2022-12-13T03:03:34.199Z,100.00
2022-12-13T03:05:06.610Z,100.00
2022-12-13T03:06:34.157Z,100.00
2022-12-13T03:07:41.325Z,100.00
2022-12-13T03:08:53.266Z,100.00
2022-12-13T03:10:02.095Z,100.00
2022-12-13T03:11:08.535Z,100.00
2022-12-13T03:12:40.865Z,100.00
2022-12-13T03:13:52.070Z,100.00
2022-12-13T03:14:58.754Z,100.00
2022-12-13T03:16:09.669Z,100.00
2022-12-13T03:17:18.129Z,100.00
2022-12-13T03:18:22.424Z,100.00
2022-12-13T03:19:26.042Z,100.00
2022-12-13T03:20:29.554Z,100.00
2022-12-13T03:21:44.081Z,100.00
2022-12-13T03:22:50.922Z,100.00
2022-12-13T03:23:54.585Z,100.00
2022-12-13T03:24:56.808Z,100.00
2022-12-13T03:26:06.209Z,100.00
2022-12-13T03:27:09.397Z,100.00
2022-12-13T03:28:12.715Z,100.00
2022-12-13T03:29:24.637Z,100.00
2022-12-13T03:30:28.214Z,100.00
2022-12-13T03:31:32.103Z,100.00
2022-12-13T03:32:35.737Z,100.00
2022-12-13T03:33:39.710Z,100.00
2022-12-13T03:34:43.282Z,100.00
2022-12-13T03:35:48.234Z,100.00
2022-12-13T03:36:50.494Z,100.00
2022-12-13T03:37:53.950Z,100.00
2022-12-13T03:38:57.607Z,100.00
2022-12-13T03:40:00.037Z,100.00
2022-12-13T03:41:05.644Z,100.00
2022-12-13T03:42:07.915Z,100.00
2022-12-13T03:43:11.189Z,100.00
2022-12-13T03:44:13.986Z,100.00
2022-12-13T03:45:18.882Z,100.00
2022-12-13T03:46:21.079Z,100.00
2022-12-13T03:47:24.282Z,100.00
2022-12-13T03:48:28.273Z,100.00
2022-12-13T03:49:35.752Z,100.00
2022-12-13T03:50:38.109Z,100.00
2022-12-13T03:51:41.765Z,100.00
2022-12-13T03:52:44.434Z,100.00
2022-12-13T03:53:48.143Z,100.00
2022-12-13T03:54:50.362Z,100.00
2022-12-13T03:55:53.914Z,100.00
2022-12-13T03:56:56.097Z,100.00
2022-12-13T03:58:03.232Z,100.00
2022-12-13T03:59:09.411Z,100.00
2022-12-13T04:00:13.265Z,100.00
2022-12-13T04:01:18.226Z,100.00
2022-12-13T04:02:30.671Z,100.00
2022-12-13T04:03:36.921Z,100.00
2022-12-13T04:04:39.135Z,100.00
2022-12-13T04:05:42.563Z,100.00
2022-12-13T04:06:45.803Z,100.00
2022-12-13T04:07:48.728Z,100.00
2022-12-13T04:08:52.684Z,100.00
2022-12-13T04:09:54.977Z,100.00
2022-12-13T04:10:58.257Z,100.00
2022-12-13T04:12:18.776Z,100.00
2022-12-13T04:13:32.981Z,100.00
2022-12-13T04:14:36.302Z,100.00
2022-12-13T04:15:39.325Z,100.00
2022-12-13T04:16:42.560Z,100.00
2022-12-13T04:17:44.688Z,100.00
2022-12-13T04:18:55.772Z,100.00
2022-12-13T04:19:57.906Z,100.00
2022-12-13T04:21:01.068Z,100.00
2022-12-13T04:22:03.263Z,100.00
2022-12-13T04:23:10.171Z,100.00
2022-12-13T04:24:13.966Z,100.00
2022-12-13T04:25:16.587Z,100.00
2022-12-13T04:26:20.633Z,100.00
2022-12-13T04:27:22.827Z,100.00
2022-12-13T04:28:26.056Z,100.00
2022-12-13T04:29:34.107Z,100.00
2022-12-13T04:30:38.440Z,100.00
2022-12-13T04:31:41.898Z,100.00
2022-12-13T04:32:44.212Z,100.00
2022-12-13T04:33:47.415Z,100.00
2022-12-13T04:34:50.950Z,100.00
2022-12-13T04:35:54.231Z,100.00
2022-12-13T04:36:56.445Z,100.00
2022-12-13T04:37:59.988Z,100.00
2022-12-13T04:39:02.725Z,100.00
2022-12-13T04:40:07.228Z,100.00
2022-12-13T04:41:15.514Z,100.00
2022-12-13T04:42:18.713Z,100.00
2022-12-13T04:43:22.178Z,100.00
2022-12-13T04:44:28.155Z,100.00
2022-12-13T04:45:33.310Z,100.00
2022-12-13T04:46:35.519Z,100.00
2022-12-13T04:47:38.723Z,100.00
2022-12-13T04:48:40.863Z,100.00
2022-12-13T04:49:44.009Z,100.00
2022-12-13T04:50:47.685Z,100.00
2022-12-13T04:51:52.735Z,100.00
2022-12-13T04:52:59.187Z,100.00
2022-12-13T04:54:23.555Z,100.00
2022-12-13T04:55:24.580Z,100.00
2022-12-13T04:56:26.705Z,100.00
2022-12-13T04:57:29.812Z,100.00
2022-12-13T04:58:32.421Z,100.00
2022-12-13T04:59:35.788Z,100.00
2022-12-13T05:00:39.943Z,100.00
2022-12-13T05:01:47.601Z,100.00
2022-12-13T05:02:49.936Z,100.00
2022-12-13T05:03:53.291Z,100.00
2022-12-13T05:04:55.460Z,100.00
2022-12-13T05:06:00.828Z,100.00
2022-12-13T05:07:03.728Z,100.00
2022-12-13T05:08:07.122Z,100.00
2022-12-13T05:09:11.323Z,100.00
2022-12-13T05:10:34.129Z,100.00
2022-12-13T05:11:38.896Z,100.00
2022-12-13T05:12:48.182Z,100.00
2022-12-13T05:13:51.433Z,100.00
2022-12-13T05:14:54.044Z,100.00
2022-12-13T05:15:57.757Z,100.00
2022-12-13T05:17:00.130Z,100.00
2022-12-13T05:18:09.786Z,100.00
2022-12-13T05:19:13.965Z,100.00
2022-12-13T05:20:16.298Z,100.00
2022-12-13T05:21:20.874Z,100.00
2022-12-13T05:22:23.107Z,100.00
2022-12-13T05:23:26.349Z,100.00
2022-12-13T05:24:28.723Z,100.00
2022-12-13T05:25:32.021Z,100.00
2022-12-13T05:26:35.267Z,100.00
2022-12-13T05:27:38.520Z,100.00
2022-12-13T05:28:40.683Z,100.00
2022-12-13T05:29:43.901Z,100.00
2022-12-13T05:30:46.124Z,100.00
2022-12-13T05:31:49.576Z,100.00
2022-12-13T05:32:52.848Z,100.00
2022-12-13T05:33:55.162Z,100.00
2022-12-13T05:35:05.078Z,100.00
2022-12-13T05:36:08.168Z,100.00
2022-12-13T05:37:12.770Z,100.00
2022-12-13T05:38:15.513Z,100.00
2022-12-13T05:39:29.432Z,100.00
2022-12-13T05:40:32.659Z,100.00
2022-12-13T05:41:38.007Z,100.00
2022-12-13T05:42:40.166Z,100.00
2022-12-13T05:43:43.904Z,100.00
2022-12-13T05:44:46.250Z,100.00
2022-12-13T05:45:49.585Z,100.00
2022-12-13T05:46:51.815Z,100.00
2022-12-13T05:47:55.138Z,100.00
2022-12-13T05:48:57.258Z,100.00
2022-12-13T05:50:00.719Z,100.00
2022-12-13T05:51:11.080Z,100.00
2022-12-13T05:52:19.045Z,100.00
2022-12-13T05:53:30.858Z,100.00
2022-12-13T05:54:34.459Z,100.00
2022-12-13T05:55:38.813Z,100.00
2022-12-13T05:56:41.029Z,100.00
2022-12-13T05:57:50.379Z,100.00
2022-12-13T05:58:54.416Z,100.00
2022-12-13T05:59:58.827Z,100.00
2022-12-13T06:01:06.759Z,100.00
2022-12-13T06:02:10.024Z,100.00
2022-12-13T06:03:12.464Z,100.00
2022-12-13T06:04:22.347Z,100.00
2022-12-13T06:05:26.204Z,100.00
2022-12-13T06:06:30.156Z,100.00
2022-12-13T06:07:33.977Z,100.00
2022-12-13T06:08:38.135Z,100.00
2022-12-13T06:09:40.373Z,100.00
2022-12-13T06:10:43.572Z,100.00
2022-12-13T06:11:45.738Z,100.00
2022-12-13T06:12:48.933Z,100.00
2022-12-13T06:13:52.330Z,100.00
2022-12-13T06:15:04.809Z,100.00
2022-12-13T06:16:25.435Z,100.00
2022-12-13T06:17:31.027Z,100.00
2022-12-13T06:18:35.774Z,100.00
2022-12-13T06:19:39.042Z,100.00
2022-12-13T06:20:41.282Z,100.00
2022-12-13T06:21:46.433Z,100.00
2022-12-13T06:22:51.161Z,100.00
2022-12-13T06:23:56.461Z,100.00
2022-12-13T06:25:01.577Z,100.00
2022-12-13T06:26:05.197Z,100.00
2022-12-13T06:27:08.351Z,100.00
2022-12-13T06:28:11.522Z,100.00
2022-12-13T06:29:24.540Z,100.00
2022-12-13T06:30:28.488Z,100.00
2022-12-13T06:31:30.628Z,100.00
2022-12-13T06:32:33.826Z,100.00
2022-12-13T06:33:36.719Z,100.00
2022-12-13T06:34:39.928Z,100.00
2022-12-13T06:35:42.344Z,100.00
2022-12-13T06:36:45.492Z,100.00
2022-12-13T06:37:54.414Z,100.00
2022-12-13T06:39:05.186Z,100.00
2022-12-13T06:40:09.336Z,100.00
2022-12-13T06:41:17.186Z,100.00
2022-12-13T06:42:21.852Z,100.00
2022-12-13T06:43:24.599Z,100.00
2022-12-13T06:44:27.964Z,100.00
2022-12-13T06:45:31.115Z,100.00
2022-12-13T06:46:34.492Z,100.00
2022-12-13T06:47:37.857Z,100.00
2022-12-13T06:48:40.701Z,100.00
2022-12-13T06:49:44.808Z,100.00
2022-12-13T06:50:48.673Z,100.00
2022-12-13T06:51:51.890Z,100.00
2022-12-13T06:52:56.598Z,100.00
2022-12-13T06:54:00.935Z,100.00
2022-12-13T06:55:04.573Z,100.00
2022-12-13T06:56:09.702Z,100.00
2022-12-13T06:57:12.927Z,100.00
2022-12-13T06:58:16.114Z,100.00
2022-12-13T06:59:19.340Z,100.00
2022-12-13T07:00:24.939Z,100.00
2022-12-13T07:01:36.989Z,100.00
2022-12-13T07:02:40.156Z,100.00
2022-12-13T07:03:43.612Z,100.00
2022-12-13T07:04:46.866Z,100.00
2022-12-13T07:05:52.442Z,100.00
2022-12-13T07:07:01.401Z,100.00
2022-12-13T07:08:07.440Z,100.00
2022-12-13T07:09:10.728Z,100.00
2022-12-13T07:10:22.202Z,100.00
2022-12-13T07:11:28.993Z,100.00
2022-12-13T07:12:32.881Z,100.00
2022-12-13T07:13:36.060Z,100.00
2022-12-13T07:14:41.014Z,100.00
2022-12-13T07:15:44.657Z,100.00
2022-12-13T07:16:47.899Z,100.00
2022-12-13T07:17:51.823Z,100.00
2022-12-13T07:18:54.542Z,100.00
2022-12-13T07:20:09.259Z,100.00
2022-12-13T07:21:21.655Z,100.00
2022-12-13T07:22:25.622Z,100.00
2022-12-13T07:23:30.420Z,100.00
2022-12-13T07:24:33.663Z,100.00
2022-12-13T07:25:36.991Z,100.00
2022-12-13T07:26:39.225Z,100.00
2022-12-13T07:27:44.743Z,100.00
2022-12-13T07:28:53.059Z,100.00
2022-12-13T07:29:58.201Z,100.00
2022-12-13T07:31:02.471Z,100.00
2022-12-13T07:32:06.038Z,100.00
2022-12-13T07:33:08.621Z,100.00
2022-12-13T07:34:15.613Z,100.00
2022-12-13T07:35:19.064Z,100.00
2022-12-13T07:36:24.358Z,100.00
2022-12-13T07:37:30.060Z,100.00
2022-12-13T07:38:35.634Z,100.00
2022-12-13T07:39:39.011Z,100.00
2022-12-13T07:40:42.396Z,100.00
2022-12-13T07:41:45.599Z,100.00
2022-12-13T07:42:51.149Z,100.00
2022-12-13T07:43:56.073Z,100.00
2022-12-13T07:44:59.493Z,100.00
2022-12-13T07:46:04.204Z,100.00
2022-12-13T07:47:07.461Z,100.00
2022-12-13T07:48:10.677Z,100.00
2022-12-13T07:49:13.889Z,100.00
2022-12-13T07:50:24.326Z,100.00
2022-12-13T07:51:28.806Z,100.00
2022-12-13T07:52:31.975Z,100.00
2022-12-13T07:53:36.804Z,100.00
2022-12-13T07:54:40.237Z,100.00
2022-12-13T07:55:43.469Z,100.00
2022-12-13T07:56:46.685Z,100.00
2022-12-13T07:57:49.829Z,100.00
2022-12-13T07:58:53.365Z,100.00
2022-12-13T07:59:55.614Z,100.00
2022-12-13T08:01:01.335Z,100.00
2022-12-13T08:02:04.672Z,100.00
2022-12-13T08:03:12.153Z,100.00
2022-12-13T08:04:27.528Z,100.00
2022-12-13T08:05:38.337Z,100.00
2022-12-13T08:06:42.418Z,100.00
2022-12-13T08:07:44.577Z,100.00
2022-12-13T08:08:51.206Z,100.00
2022-12-13T08:09:55.373Z,100.00
2022-12-13T08:11:02.394Z,100.00
2022-12-13T08:12:06.415Z,100.00
2022-12-13T08:13:09.722Z,100.00
2022-12-13T08:14:12.952Z,100.00
2022-12-13T08:15:16.296Z,100.00
2022-12-13T08:16:27.350Z,100.00
2022-12-13T08:17:32.305Z,100.00
2022-12-13T08:18:34.538Z,100.00
2022-12-13T08:19:37.701Z,100.00
2022-12-13T08:20:40.876Z,100.00
2022-12-13T08:22:01.488Z,100.00
2022-12-13T08:23:05.264Z,100.00
2022-12-13T08:24:15.466Z,100.00
2022-12-13T08:25:19.257Z,100.00
2022-12-13T08:26:25.017Z,100.00
2022-12-13T08:27:28.522Z,100.00
2022-12-13T08:28:32.909Z,100.00
2022-12-13T08:29:36.569Z,100.00
2022-12-13T08:30:39.779Z,100.00
2022-12-13T08:31:43.000Z,100.00
2022-12-13T08:32:46.289Z,100.00
2022-12-13T08:33:49.675Z,100.00
2022-12-13T08:34:52.855Z,100.00
2022-12-13T08:35:55.031Z,100.00
2022-12-13T08:37:02.001Z,100.00
2022-12-13T08:38:06.359Z,100.00
2022-12-13T08:39:11.007Z,100.00
2022-12-13T08:40:14.246Z,100.00
2022-12-13T08:41:17.462Z,100.00
2022-12-13T08:42:20.719Z,100.00
2022-12-13T08:43:24.865Z,100.00
2022-12-13T08:44:28.499Z,100.00
2022-12-13T08:45:32.214Z,100.00
2022-12-13T08:46:35.563Z,100.00
2022-12-13T08:47:41.803Z,100.00
2022-12-13T08:48:45.474Z,100.00
2022-12-13T08:49:47.906Z,100.00
2022-12-13T08:50:51.342Z,100.00
2022-12-13T08:51:54.469Z,100.00
2022-12-13T08:52:57.756Z,100.00
2022-12-13T08:54:10.461Z,100.00
2022-12-13T08:55:18.990Z,100.00
2022-12-13T08:56:24.386Z,100.00
2022-12-13T08:57:27.568Z,100.00
2022-12-13T08:58:31.463Z,100.00
2022-12-13T08:59:34.608Z,100.00
2022-12-13T09:00:38.530Z,100.00
2022-12-13T09:01:41.827Z,100.00
2022-12-13T09:02:45.304Z,100.00
2022-12-13T09:03:47.597Z,100.00
2022-12-13T09:04:50.762Z,100.00
2022-12-13T09:05:53.921Z,100.00
2022-12-13T09:06:57.207Z,100.00
2022-12-13T09:08:24.030Z,99.89
2022-12-13T09:09:29.321Z,99.59
2022-12-13T09:10:38.470Z,99.66
2022-12-13T09:11:42.033Z,99.60
2022-12-13T09:12:45.214Z,99.40
2022-12-13T09:13:48.642Z,99.56
2022-12-13T09:14:51.821Z,99.51
2022-12-13T09:15:55.066Z,99.24
2022-12-13T09:17:05.095Z,99.26
2022-12-13T09:18:08.353Z,99.36
2022-12-13T09:19:25.194Z,99.42
2022-12-13T09:20:30.222Z,99.14
2022-12-13T09:21:33.745Z,99.28
2022-12-13T09:22:36.994Z,99.64
2022-12-13T09:23:48.468Z,99.03
2022-12-13T09:24:51.841Z,99.26
2022-12-13T09:26:05.546Z,99.12
2022-12-13T09:27:27.532Z,98.65
2022-12-13T09:28:31.942Z,98.33
2022-12-13T09:29:36.558Z,98.67
2022-12-13T09:30:40.597Z,98.54
2022-12-13T09:31:48.308Z,98.07
2022-12-13T09:32:57.401Z,98.12
2022-12-13T09:34:00.624Z,97.74
2022-12-13T09:35:05.303Z,97.82
2022-12-13T09:36:11.765Z,97.62
2022-12-13T09:37:14.980Z,97.35
2022-12-13T09:38:26.436Z,96.69
2022-12-13T09:39:29.766Z,96.56
2022-12-13T09:40:37.857Z,96.51
2022-12-13T09:41:47.198Z,96.03
2022-12-13T09:43:11.856Z,95.90
2022-12-13T09:44:30.997Z,95.92
2022-12-13T09:45:42.981Z,95.58
2022-12-13T09:46:48.532Z,95.35
2022-12-13T09:47:53.872Z,94.94
2022-12-13T09:49:13.424Z,95.16
2022-12-13T09:50:25.652Z,95.24
2022-12-13T09:51:39.503Z,94.91
2022-12-13T09:52:47.507Z,94.65
2022-12-13T09:53:54.349Z,94.40
2022-12-13T09:54:59.524Z,94.09
2022-12-13T09:56:10.049Z,93.54
2022-12-13T09:57:31.133Z,93.55
2022-12-13T09:58:37.282Z,93.24
2022-12-13T09:59:42.823Z,93.17
2022-12-13T10:00:48.431Z,92.79
2022-12-13T10:01:51.959Z,92.70
2022-12-13T10:02:58.243Z,92.82
2022-12-13T10:04:02.290Z,92.58
2022-12-13T10:05:22.874Z,92.46
2022-12-13T10:06:31.487Z,91.78
2022-12-13T10:07:34.692Z,91.37
2022-12-13T10:08:44.690Z,91.43
2022-12-13T10:09:48.696Z,91.30
2022-12-13T10:10:53.970Z,91.47
2022-12-13T10:12:00.565Z,91.10
2022-12-13T10:13:17.830Z,91.01
2022-12-13T10:14:27.555Z,90.66
2022-12-13T10:15:34.411Z,90.83
2022-12-13T10:16:46.128Z,90.43
2022-12-13T10:17:51.952Z,90.65
2022-12-13T10:18:59.144Z,90.20
2022-12-13T10:20:04.552Z,90.21
2022-12-13T10:21:12.830Z,90.18
2022-12-13T10:22:17.989Z,90.25
2022-12-13T10:23:38.543Z,89.90
2022-12-13T10:24:53.073Z,90.28
2022-12-13T10:26:02.937Z,89.89
2022-12-13T10:27:13.687Z,89.87
2022-12-13T10:28:19.832Z,89.75
2022-12-13T10:29:23.198Z,89.85
2022-12-13T10:30:29.173Z,89.55
2022-12-13T10:31:41.581Z,89.66
2022-12-13T10:32:51.131Z,89.60
2022-12-13T10:33:58.445Z,89.31
2022-12-13T10:35:02.152Z,89.27
2022-12-13T10:36:31.052Z,88.77
2022-12-13T10:37:34.309Z,89.13
2022-12-13T10:38:40.144Z,88.86
2022-12-13T10:39:44.633Z,88.75
2022-12-13T10:40:49.182Z,88.14
2022-12-13T10:42:04.014Z,87.06
2022-12-13T10:43:09.070Z,87.99
2022-12-13T10:44:25.364Z,87.76
2022-12-13T10:45:28.825Z,87.30
2022-12-13T10:46:38.358Z,87.31
2022-12-13T10:47:45.168Z,87.44
2022-12-13T10:48:50.481Z,87.64
2022-12-13T10:49:58.775Z,87.25
2022-12-13T10:51:05.360Z,86.52
2022-12-13T10:52:31.611Z,87.14
2022-12-13T10:53:40.280Z,87.18
2022-12-13T10:54:50.720Z,86.87
2022-12-13T10:56:02.258Z,87.04
2022-12-13T10:57:06.557Z,86.91
2022-12-13T10:58:20.952Z,86.87
2022-12-13T10:59:33.870Z,86.93
2022-12-13T11:00:41.068Z,86.62
2022-12-13T11:01:44.325Z,87.07
2022-12-13T11:02:55.320Z,86.93
2022-12-13T11:04:02.126Z,86.69
2022-12-13T11:05:25.178Z,86.66
2022-12-13T11:06:30.378Z,86.82
2022-12-13T11:07:34.854Z,86.86
2022-12-13T11:08:38.785Z,86.76
2022-12-13T11:09:42.009Z,86.44
2022-12-13T11:10:45.640Z,86.38
2022-12-13T11:11:57.990Z,86.21
2022-12-13T11:13:04.399Z,86.28
2022-12-13T11:14:14.935Z,86.09
2022-12-13T11:15:26.539Z,85.71
2022-12-13T11:16:35.350Z,85.71
2022-12-13T11:17:48.898Z,85.84
2022-12-13T11:18:55.340Z,85.60
2022-12-13T11:20:01.842Z,85.20
2022-12-13T11:21:07.767Z,85.56
2022-12-13T11:22:20.046Z,85.51
2022-12-13T11:23:29.791Z,85.04
2022-12-13T11:24:35.410Z,84.62
2022-12-13T11:25:42.451Z,83.61
2022-12-13T11:26:53.780Z,84.50
2022-12-13T11:28:26.588Z,84.32
2022-12-13T11:30:02.987Z,84.45
2022-12-13T11:31:14.519Z,84.31
2022-12-13T11:32:28.449Z,83.89
2022-12-13T11:33:48.031Z,83.90
2022-12-13T11:35:00.086Z,83.66
2022-12-13T11:36:16.289Z,83.62
2022-12-13T11:37:29.918Z,83.76
2022-12-13T11:38:37.489Z,83.95
2022-12-13T11:39:46.780Z,83.91
2022-12-13T11:40:54.292Z,83.44
2022-12-13T11:42:02.814Z,83.93
2022-12-13T11:43:13.260Z,83.85
2022-12-13T11:44:22.896Z,83.80
2022-12-13T11:45:31.876Z,83.75
2022-12-13T11:46:41.834Z,83.42
2022-12-13T11:47:49.369Z,83.56
2022-12-13T11:48:57.861Z,84.05
2022-12-13T11:50:04.559Z,83.87
2022-12-13T11:51:11.493Z,83.88
2022-12-13T11:52:20.061Z,83.83
2022-12-13T11:53:31.351Z,83.63
2022-12-13T11:54:43.980Z,83.75
2022-12-13T11:55:53.499Z,83.49
2022-12-13T11:57:00.224Z,83.23
2022-12-13T11:58:16.438Z,83.62
2022-12-13T11:59:29.713Z,83.73
2022-12-13T12:00:37.077Z,83.29
2022-12-13T12:01:47.375Z,83.28
2022-12-13T12:03:00.063Z,83.40
2022-12-13T12:04:13.853Z,83.53
2022-12-13T12:05:28.403Z,83.31
2022-12-13T12:06:38.631Z,83.44
2022-12-13T12:08:12.685Z,83.06
2022-12-13T12:09:15.977Z,83.01
2022-12-13T12:10:28.243Z,83.08
2022-12-13T12:11:36.853Z,83.24
2022-12-13T12:12:43.944Z,83.29
2022-12-13T12:13:52.722Z,83.07
2022-12-13T12:15:15.082Z,83.41
2022-12-13T12:16:28.458Z,83.35
2022-12-13T12:17:42.045Z,83.13
2022-12-13T12:18:45.878Z,83.30
2022-12-13T12:19:53.660Z,82.82
2022-12-13T12:21:07.341Z,83.00
2022-12-13T12:22:24.444Z,83.05
2022-12-13T12:23:46.233Z,83.28
2022-12-13T12:25:04.085Z,83.31
2022-12-13T12:26:10.253Z,83.00
2022-12-13T12:27:26.098Z,83.04
2022-12-13T12:28:44.331Z,82.95
2022-12-13T12:30:03.913Z,82.87
2022-12-13T12:31:17.050Z,83.16
2022-12-13T12:32:31.233Z,82.68
2022-12-13T12:33:46.334Z,82.83
2022-12-13T12:34:57.548Z,82.70
2022-12-13T12:36:15.419Z,82.62
2022-12-13T12:37:25.918Z,82.50
2022-12-13T12:38:58.991Z,82.75
2022-12-13T12:40:46.200Z,82.74
2022-12-13T12:42:17.413Z,82.64
2022-12-13T12:43:27.798Z,83.05
2022-12-13T12:44:43.616Z,82.84
2022-12-13T12:46:00.176Z,83.13
2022-12-13T12:49:02.138Z,82.94
2022-12-13T12:50:24.648Z,83.28
2022-12-13T12:51:34.908Z,83.20
2022-12-13T12:52:49.764Z,83.40
2022-12-13T12:54:00.926Z,83.10
2022-12-13T12:55:12.282Z,83.20
2022-12-13T12:56:36.611Z,83.44
2022-12-13T12:57:50.468Z,83.28
2022-12-13T12:59:05.978Z,83.30
2022-12-13T13:00:13.396Z,83.18
2022-12-13T13:01:34.694Z,83.41
2022-12-13T13:02:47.701Z,83.42
2022-12-13T13:04:01.482Z,83.57
2022-12-13T13:05:17.459Z,83.80
2022-12-13T13:06:24.591Z,83.58
2022-12-13T13:07:39.629Z,83.93
2022-12-13T13:08:54.838Z,84.14
2022-12-13T13:09:59.645Z,84.24
2022-12-13T13:11:25.122Z,84.31
2022-12-13T13:12:33.229Z,83.91
2022-12-13T13:13:46.593Z,84.40
2022-12-13T13:14:50.360Z,84.58
2022-12-13T13:15:59.759Z,84.58
2022-12-13T13:17:42.670Z,84.69
2022-12-13T13:18:50.933Z,84.91
2022-12-13T13:20:13.247Z,84.95
2022-12-13T13:21:41.999Z,84.92
2022-12-13T13:22:58.521Z,85.03
2022-12-13T13:24:24.909Z,85.26
2022-12-13T13:25:35.221Z,84.95
2022-12-13T13:26:49.816Z,85.41
2022-12-13T13:28:01.842Z,85.53
2022-12-13T13:29:38.984Z,85.38
2022-12-13T13:31:05.361Z,85.79
2022-12-13T13:32:31.824Z,85.89
2022-12-13T13:33:45.720Z,86.02
2022-12-13T13:35:00.661Z,85.89
2022-12-13T13:36:49.129Z,86.21
2022-12-13T13:37:52.332Z,86.32
2022-12-13T13:39:01.641Z,86.45
2022-12-13T13:40:31.680Z,86.94
2022-12-13T13:41:55.744Z,86.92
2022-12-13T13:43:19.381Z,87.11
2022-12-13T13:44:50.294Z,87.30
2022-12-13T13:46:00.501Z,87.34
2022-12-13T13:47:15.260Z,87.49
2022-12-13T13:48:36.824Z,87.72
2022-12-13T13:49:55.840Z,87.84
2022-12-13T13:51:49.401Z,88.04
2022-12-13T13:53:12.827Z,88.21
2022-12-13T13:54:55.914Z,87.82
2022-12-13T13:56:08.441Z,87.84
2022-12-13T13:58:09.727Z,88.04
2022-12-13T14:00:02.972Z,88.72
2022-12-13T14:02:01.046Z,88.67
2022-12-13T14:03:38.689Z,89.44
2022-12-13T14:05:31.717Z,89.26
2022-12-13T14:07:11.947Z,90.37
2022-12-13T14:08:20.802Z,89.69
2022-12-13T14:09:55.257Z,89.90
2022-12-13T14:11:23.562Z,90.21
2022-12-13T14:13:19.616Z,90.12
2022-12-13T14:15:01.310Z,89.98
2022-12-13T14:16:46.235Z,88.77
2022-12-13T14:18:22.009Z,89.07
2022-12-13T14:20:07.792Z,89.17
2022-12-13T14:21:38.618Z,89.01
2022-12-13T14:22:46.725Z,88.94
2022-12-13T14:24:01.763Z,89.23
2022-12-13T14:25:24.522Z,89.51
2022-12-13T14:26:43.346Z,89.56
2022-12-13T14:27:49.949Z,89.83